Pittsford, Michigan
Current Conditions -  °F | °C
As of 10:55 PM on Tuesday 21 Oct 2014 (Local Time) from KJYM Reporting Station
Overcast Overcast  
Wind Chill: 43°   Ceiling: 4900
Heat Index: 43°   Visibility: 10mi
Dew Point: 38°   Wind: 3mph
Humidity: 82%   Direction: 20°NNE
Pressure: 30.22"   Gusts: NA
Location:  41.86°N, 84.48°W
Report Text: KJYM 220255Z AUTO 02003KT 10SM OVC049 06/03 A3022 RMK AO2 T00610033
Loading
Personal Weather Stations






























Interactive Weather Map
Tropical Storm Tracking
New forecast layout! Learn more

10-Day Weather Forecast

Advertisements
Track Severe Weather on mobile